Time;durP1;ratioP1;P1;durP2;ratioP2;P2;SDS_P1;SDS_P2;PMS_P1;PMS_P2;Temp;Humidity;BMP_temperature;BMP_pressure;BME280_temperature;BME280_humidity;BME280_pressure;Samples;Min_cycle;Max_cycle;Signal;HPM_P1;HPM_P2
2024/01/13 00:00:51;;;;;;;1.73;1.07;;;;;;;-5.22;100.00;99726.78;5108797;28;20526;-59
2024/01/13 00:03:18;;;;;;;6.20;1.80;;;;;;;-5.17;100.00;99722.63;5108761;28;20487;-59
2024/01/13 00:05:45;;;;;;;6.10;1.63;;;;;;;-5.25;100.00;99713.47;5108734;28;20935;-59
2024/01/13 00:08:13;;;;;;;6.50;1.73;;;;;;;-5.22;100.00;99711.81;5108753;28;20963;-59
2024/01/13 00:10:40;;;;;;;1.07;1.03;;;;;;;-5.21;100.00;99708.50;5108731;28;20463;-59
2024/01/13 00:13:08;;;;;;;2.57;1.83;;;;;;;-5.19;100.00;99709.34;5108827;28;20447;-59
2024/01/13 00:15:35;;;;;;;0.40;0.40;;;;;;;-5.19;100.00;99696.88;5108792;28;20474;-59
2024/01/13 00:18:02;;;;;;;1.60;1.27;;;;;;;-5.26;100.00;99694.38;5109963;28;20438;-59
2024/01/13 00:20:29;;;;;;;4.73;3.57;;;;;;;-5.18;100.00;99696.03;5112610;28;20443;-59
2024/01/13 00:22:56;;;;;;;2.67;2.07;;;;;;;-5.16;100.00;99696.88;5112251;28;20522;-59
2024/01/13 00:25:24;;;;;;;0.77;0.77;;;;;;;-5.18;100.00;99706.00;5112436;28;20450;-59
2024/01/13 00:27:50;;;;;;;2.83;2.43;;;;;;;-5.14;100.00;99716.00;5112700;28;20490;-59
2024/01/13 00:30:17;;;;;;;1.03;0.67;;;;;;;-5.14;100.00;99722.66;5112338;28;20476;-59
2024/01/13 00:32:44;;;;;;;1.77;0.60;;;;;;;-5.15;100.00;99728.44;5112261;28;20446;-59
2024/01/13 00:35:12;;;;;;;1.87;0.93;;;;;;;-5.17;100.00;99728.44;5112531;28;20443;-59
2024/01/13 00:37:38;;;;;;;2.17;2.00;;;;;;;-5.17;100.00;99722.63;5112379;28;20443;-59
2024/01/13 00:40:07;;;;;;;0.73;0.50;;;;;;;-5.15;100.00;99725.94;5112173;28;20439;-59
2024/01/13 00:42:35;;;;;;;4.67;1.03;;;;;;;-5.11;100.00;99737.59;5112002;28;20878;-59
2024/01/13 00:45:02;;;;;;;2.03;1.23;;;;;;;-5.14;100.00;99737.59;5112157;28;20450;-59
2024/01/13 00:47:28;;;;;;;0.60;0.57;;;;;;;-5.17;100.00;99732.59;5112324;28;20442;-59
2024/01/13 00:49:55;;;;;;;2.37;0.87;;;;;;;-5.24;100.00;99722.63;5111887;28;20451;-59
2024/01/13 00:52:22;;;;;;;0.97;0.70;;;;;;;-5.21;100.00;99730.91;5112401;28;20854;-59
2024/01/13 00:54:49;;;;;;;1.60;1.40;;;;;;;-5.27;100.00;99727.59;5111863;28;20454;-59
2024/01/13 00:57:16;;;;;;;0.43;0.43;;;;;;;-5.27;100.00;99729.25;5111805;28;20447;-59
2024/01/13 00:59:44;;;;;;;1.33;0.97;;;;;;;-5.29;100.00;99724.28;5111796;28;20455;-59
2024/01/13 01:02:10;;;;;;;1.50;1.40;;;;;;;-5.34;100.00;99728.41;5111901;28;21002;-59
2024/01/13 01:04:37;;;;;;;1.70;1.50;;;;;;;-5.35;100.00;99724.25;5111822;28;20446;-59
2024/01/13 01:07:05;;;;;;;4.23;1.93;;;;;;;-5.34;100.00;99725.91;5111861;28;20450;-59
2024/01/13 01:09:31;;;;;;;1.23;1.13;;;;;;;-5.31;100.00;99718.44;5111599;28;20450;-59
2024/01/13 01:11:58;;;;;;;5.83;1.10;;;;;;;-5.32;100.00;99719.28;5111758;28;20451;-59
2024/01/13 01:14:25;;;;;;;6.83;2.17;;;;;;;-5.32;100.00;99720.97;5111346;28;20952;-59
2024/01/13 01:16:54;;;;;;;1.83;1.07;;;;;;;-5.28;100.00;99710.16;5111524;28;20447;-59
2024/01/13 01:19:20;;;;;;;0.47;0.47;;;;;;;-5.30;100.00;99711.81;5111428;28;21136;-59
2024/01/13 01:21:47;;;;;;;1.07;1.03;;;;;;;-5.36;100.00;99712.63;5111433;28;20450;-59
2024/01/13 01:24:14;;;;;;;0.57;0.57;;;;;;;-5.29;100.00;99718.47;5111421;28;20486;-59
2024/01/13 01:26:41;;;;;;;1.40;1.13;;;;;;;-5.30;100.00;99719.28;5111217;28;20447;-60
2024/01/13 01:29:08;;;;;;;3.10;1.40;;;;;;;-5.34;100.00;99725.91;5111385;28;20454;-59
2024/01/13 01:31:34;;;;;;;2.50;1.50;;;;;;;-5.37;100.00;99735.88;5111220;28;20451;-59
2024/01/13 01:34:02;;;;;;;0.40;0.40;;;;;;;-5.40;100.00;99720.09;5111032;28;20839;-59
2024/01/13 01:36:29;;;;;;;2.23;1.00;;;;;;;-5.35;100.00;99729.25;5110927;28;20457;-59
2024/01/13 01:38:56;;;;;;;1.10;1.00;;;;;;;-5.35;100.00;99729.25;5111045;28;20446;-59
2024/01/13 01:41:26;;;;;;;3.10;1.10;;;;;;;-5.39;100.00;99722.56;5111199;28;20470;-59
2024/01/13 01:43:52;;;;;;;0.83;0.83;;;;;;;-5.41;100.00;99723.41;5110809;28;20508;-59
2024/01/13 01:46:21;;;;;;;2.50;0.73;;;;;;;-5.40;100.00;99723.41;5110974;28;20462;-59
2024/01/13 01:48:48;;;;;;;0.57;0.57;;;;;;;-5.42;100.00;99727.56;5110858;28;20443;-59
2024/01/13 01:51:17;;;;;;;0.83;0.83;;;;;;;-5.43;100.00;99730.88;5111189;28;20463;-59
2024/01/13 01:53:47;;;;;;;1.17;0.93;;;;;;;-5.43;100.00;99725.91;5111128;28;20434;-59
2024/01/13 01:56:15;;;;;;;1.87;1.40;;;;;;;-5.49;100.00;99730.88;5110647;28;20466;-59
2024/01/13 01:58:43;;;;;;;0.33;0.33;;;;;;;-5.46;100.00;99730.88;5110648;28;20454;-59
2024/01/13 02:01:11;;;;;;;1.43;1.33;;;;;;;-5.53;100.00;99734.16;5110734;28;20527;-59
2024/01/13 02:03:39;;;;;;;2.40;1.13;;;;;;;-5.57;100.00;99723.38;5110573;28;20903;-59
2024/01/13 02:06:07;;;;;;;0.60;0.60;;;;;;;-5.57;100.00;99720.03;5110807;28;20439;-59
2024/01/13 02:08:35;;;;;;;2.07;1.67;;;;;;;-5.64;100.00;99706.75;5110396;28;20431;-59
2024/01/13 02:11:02;;;;;;;0.50;0.50;;;;;;;-5.62;100.00;99707.56;5110537;28;20439;-59
2024/01/13 02:13:29;;;;;;;1.00;1.00;;;;;;;-5.69;100.00;99699.25;5110312;28;20450;-59
2024/01/13 02:15:56;;;;;;;2.80;0.90;;;;;;;-5.72;100.00;99709.19;5110369;28;21000;-59
2024/01/13 02:18:23;;;;;;;0.90;0.90;;;;;;;-5.70;100.00;99701.75;5110273;28;20447;-59
2024/01/13 02:20:50;;;;;;;1.30;1.20;;;;;;;-5.69;100.00;99699.25;5110436;28;20439;-59
2024/01/13 02:23:18;;;;;;;1.90;0.60;;;;;;;-5.71;100.00;99690.94;5110045;28;20497;-59
2024/01/13 02:25:46;;;;;;;5.13;1.70;;;;;;;-5.74;100.00;99688.44;5110206;28;20474;-59
2024/01/13 02:28:13;;;;;;;0.53;0.53;;;;;;;-5.72;100.00;99689.28;5109950;28;20447;-59
2024/01/13 02:30:40;;;;;;;0.80;0.80;;;;;;;-5.76;100.00;99687.63;5110315;28;20443;-59
2024/01/13 02:33:06;;;;;;;1.03;0.80;;;;;;;-5.72;100.00;99694.25;5110152;28;20444;-59
2024/01/13 02:35:33;;;;;;;0.67;0.67;;;;;;;-5.71;100.00;99690.94;5109847;28;20968;-59
2024/01/13 02:38:00;;;;;;;1.30;1.20;;;;;;;-5.77;100.00;99685.94;5109847;28;20443;-59
2024/01/13 02:40:28;;;;;;;1.23;0.93;;;;;;;-5.77;100.00;99685.94;5109422;28;20447;-59
2024/01/13 02:42:54;;;;;;;0.60;0.60;;;;;;;-5.72;100.00;99690.94;5109767;28;20491;-59
2024/01/13 02:45:21;;;;;;;0.73;0.73;;;;;;;-5.72;100.00;99686.78;5109937;28;20442;-59
2024/01/13 02:47:54;;;;;;;2.47;1.47;;;;;;;-5.74;100.00;99685.94;5109668;28;20193;-59
2024/01/13 02:50:21;;;;;;;0.47;0.47;;;;;;;-5.76;100.00;99680.16;5109680;28;20458;-59
2024/01/13 02:52:48;;;;;;;0.57;0.57;;;;;;;-5.74;100.00;99680.97;5109621;28;20458;-60
2024/01/13 02:55:15;;;;;;;2.37;1.90;;;;;;;-5.76;100.00;99681.78;5109492;28;20451;-59
2024/01/13 02:57:43;;;;;;;1.17;1.07;;;;;;;-5.77;100.00;99680.94;5109504;28;20964;-59
2024/01/13 03:00:13;;;;;;;1.30;0.70;;;;;;;-5.80;100.00;99675.97;5109548;28;20812;-59
2024/01/13 03:02:40;;;;;;;1.37;1.27;;;;;;;-5.80;100.00;99673.47;5109416;28;20438;-59
2024/01/13 03:05:09;;;;;;;0.50;0.50;;;;;;;-5.77;100.00;99685.94;5109756;28;20447;-59
2024/01/13 03:07:36;;;;;;;1.53;1.00;;;;;;;-5.73;100.00;99686.75;5109606;28;20967;-59
2024/01/13 03:10:03;;;;;;;0.70;0.70;;;;;;;-5.75;100.00;99686.78;5109165;28;20462;-59
2024/01/13 03:12:30;;;;;;;0.77;0.73;;;;;;;-5.72;100.00;99686.78;5109477;28;20447;-59
2024/01/13 03:14:58;;;;;;;2.83;1.93;;;;;;;-5.66;100.00;99687.63;5109292;28;20451;-59
2024/01/13 03:17:25;;;;;;;4.83;0.93;;;;;;;-5.69;100.00;99681.81;5109610;28;20443;-59
2024/01/13 03:19:52;;;;;;;1.30;1.20;;;;;;;-5.66;100.00;99677.69;5109191;28;20439;-59
2024/01/13 03:22:18;;;;;;;1.03;1.03;;;;;;;-5.62;100.00;99671.88;5109475;28;20446;-59
2024/01/13 03:24:45;;;;;;;0.70;0.70;;;;;;;-5.58;100.00;99671.06;5109279;28;20490;-59
2024/01/13 03:27:12;;;;;;;2.63;2.30;;;;;;;-5.53;100.00;99669.38;5109019;28;20454;-59
2024/01/13 03:29:39;;;;;;;0.90;0.90;;;;;;;-5.52;100.00;99666.09;5109310;28;20451;-59
2024/01/13 03:32:07;;;;;;;3.23;1.57;;;;;;;-5.58;100.00;99666.09;5109464;28;20439;-59
2024/01/13 03:34:34;;;;;;;1.10;1.07;;;;;;;-5.58;100.00;99668.56;5109156;28;20451;-59
2024/01/13 03:37:01;;;;;;;1.27;1.03;;;;;;;-5.64;100.00;99671.88;5108935;28;20450;-59
2024/01/13 03:39:28;;;;;;;2.10;1.90;;;;;;;-5.62;100.00;99675.19;5109108;28;20500;-60
2024/01/13 03:41:55;;;;;;;1.07;1.00;;;;;;;-5.63;100.00;99657.75;5109262;28;20447;-59
2024/01/13 03:44:22;;;;;;;2.63;1.03;;;;;;;-5.65;100.00;99661.91;5108815;28;20936;-59
2024/01/13 03:46:49;;;;;;;1.13;1.13;;;;;;;-5.71;100.00;99656.06;5108997;28;20986;-59
2024/01/13 03:49:18;;;;;;;4.10;1.73;;;;;;;-5.79;100.00;99661.84;5108888;28;20450;-59
2024/01/13 03:51:44;;;;;;;5.13;1.43;;;;;;;-5.77;100.00;99650.25;5109174;28;20450;-59
2024/01/13 03:54:11;;;;;;;3.43;1.60;;;;;;;-5.79;100.00;99652.75;5112657;28;20843;-59
2024/01/13 03:56:38;;;;;;;1.10;1.10;;;;;;;-5.74;100.00;99646.09;5113184;28;20458;-59
2024/01/13 03:59:05;;;;;;;3.60;1.60;;;;;;;-5.75;100.00;99644.44;5113064;28;20439;-59
2024/01/13 04:01:32;;;;;;;0.40;0.40;;;;;;;-5.69;100.00;99649.44;5113138;28;20447;-59
2024/01/13 04:03:58;;;;;;;2.37;0.80;;;;;;;-5.62;100.00;99650.28;5112753;28;20495;-59
2024/01/13 04:06:27;;;;;;;0.73;0.73;;;;;;;-5.62;100.00;99644.47;5112792;28;20971;-59
2024/01/13 04:08:53;;;;;;;1.37;1.27;;;;;;;-5.66;100.00;99637.81;5112602;28;20450;-59
2024/01/13 04:11:20;;;;;;;0.60;0.60;;;;;;;-5.65;100.00;99645.28;5112787;28;21025;-58
2024/01/13 04:13:47;;;;;;;0.77;0.53;;;;;;;-5.64;100.00;99641.13;5112696;28;20455;-59
2024/01/13 04:16:14;;;;;;;0.87;0.87;;;;;;;-5.68;100.00;99646.09;5112710;28;20443;-60
2024/01/13 04:18:40;;;;;;;1.17;1.00;;;;;;;-5.74;100.00;99636.13;5112721;28;20525;-59
2024/01/13 04:21:07;;;;;;;0.80;0.80;;;;;;;-5.75;100.00;99629.50;5113138;28;20451;-59
2024/01/13 04:23:35;;;;;;;0.80;0.80;;;;;;;-5.76;100.00;99629.47;5112531;28;20482;-59
2024/01/13 04:26:02;;;;;;;1.73;0.90;;;;;;;-5.70;100.00;99625.38;5113054;28;20442;-59
2024/01/13 04:28:29;;;;;;;1.50;0.93;;;;;;;-5.75;100.00;99639.47;5112159;28;20462;-59
2024/01/13 04:30:56;;;;;;;0.87;0.87;;;;;;;-5.83;100.00;99633.63;5112704;28;20661;-60
2024/01/13 04:33:23;;;;;;;0.77;0.77;;;;;;;-5.87;100.00;99644.41;5112253;28;20443;-59
2024/01/13 04:35:49;;;;;;;2.40;1.27;;;;;;;-5.89;100.00;99636.09;5112454;28;20465;-59
2024/01/13 04:38:16;;;;;;;0.87;0.87;;;;;;;-5.88;100.00;99642.72;5112539;28;20443;-59
2024/01/13 04:40:47;;;;;;;0.47;0.47;;;;;;;-5.85;100.00;99641.91;5112031;28;20463;-59
2024/01/13 04:43:14;;;;;;;1.27;1.00;;;;;;;-5.92;100.00;99651.03;5112254;28;20468;-59
2024/01/13 04:45:40;;;;;;;0.80;0.80;;;;;;;-5.91;100.00;99650.19;5112675;28;20447;-59
2024/01/13 04:48:08;;;;;;;0.50;0.50;;;;;;;-5.95;100.00;99646.06;5112292;28;20870;-59
2024/01/13 04:50:35;;;;;;;0.43;0.30;;;;;;;-6.00;100.00;99637.75;5112385;28;20522;-59
2024/01/13 04:53:01;;;;;;;0.63;0.63;;;;;;;-6.02;100.00;99647.72;5111973;28;20948;-59
2024/01/13 04:55:28;;;;;;;0.33;0.33;;;;;;;-5.98;100.00;99651.88;5111926;28;20466;-59
2024/01/13 04:57:56;;;;;;;0.40;0.40;;;;;;;-6.00;100.00;99647.72;5112142;28;20451;-59
2024/01/13 05:00:23;;;;;;;4.17;2.50;;;;;;;-5.99;100.00;99645.25;5112008;28;20466;-59
2024/01/13 05:02:50;;;;;;;0.30;0.30;;;;;;;-5.99;100.00;99649.34;5111685;27;20458;-59
2024/01/13 05:05:17;;;;;;;0.43;0.43;;;;;;;-6.02;100.00;99649.34;5111193;28;20889;-59
2024/01/13 05:07:43;;;;;;;0.87;0.77;;;;;;;-5.95;100.00;99653.53;5111862;28;20841;-59
2024/01/13 05:10:10;;;;;;;0.60;0.60;;;;;;;-5.97;100.00;99648.53;5111619;28;20443;-59
2024/01/13 05:12:37;;;;;;;0.47;0.47;;;;;;;-5.88;100.00;99645.22;5111806;28;20447;-59
2024/01/13 05:15:07;;;;;;;2.03;1.27;;;;;;;-6.00;100.00;99650.19;5111417;28;20967;-59
2024/01/13 05:17:34;;;;;;;2.27;1.77;;;;;;;-5.98;100.00;99646.06;5111641;28;20766;-59
2024/01/13 05:20:01;;;;;;;0.30;0.30;;;;;;;-5.91;100.00;99650.19;5111313;28;20843;-59
2024/01/13 05:22:28;;;;;;;0.40;0.40;;;;;;;-5.91;100.00;99650.19;5111676;28;20451;-59
2024/01/13 05:24:55;;;;;;;1.80;1.20;;;;;;;-5.96;100.00;99639.44;5111137;28;21105;-59
2024/01/13 05:27:21;;;;;;;2.60;0.63;;;;;;;-5.85;100.00;99637.75;5111323;28;20451;-59
2024/01/13 05:29:48;;;;;;;2.60;1.50;;;;;;;-5.80;100.00;99638.59;5111426;28;20439;-59
2024/01/13 05:32:16;;;;;;;3.70;0.87;;;;;;;-5.84;100.00;99641.09;5111330;28;20453;-58
2024/01/13 05:34:43;;;;;;;1.80;1.20;;;;;;;-5.88;100.00;99637.75;5111054;28;21010;-59
2024/01/13 05:37:10;;;;;;;4.23;2.00;;;;;;;-5.96;100.00;99629.47;5111390;28;20460;-59
2024/01/13 05:39:37;;;;;;;0.50;0.50;;;;;;;-5.96;100.00;99632.81;5111320;28;20767;-59
2024/01/13 05:42:04;;;;;;;1.53;1.43;;;;;;;-5.96;100.00;99630.31;5111103;28;20443;-59
2024/01/13 05:44:31;;;;;;;0.97;0.93;;;;;;;-5.92;100.00;99628.63;5111082;28;20513;-59
2024/01/13 05:46:58;;;;;;;0.77;0.77;;;;;;;-5.94;100.00;99625.31;5110845;28;20458;-59
2024/01/13 05:49:26;;;;;;;2.00;1.00;;;;;;;-5.99;100.00;99630.31;5110776;28;20887;-59
2024/01/13 05:51:53;;;;;;;3.67;1.97;;;;;;;-5.94;100.00;99632.78;5111164;28;20466;-59
2024/01/13 05:54:20;;;;;;;0.80;0.70;;;;;;;-5.90;100.00;99629.47;5110821;28;20960;-59
2024/01/13 05:56:47;;;;;;;2.53;1.17;;;;;;;-5.95;100.00;99629.47;5110907;28;20439;-58
2024/01/13 05:59:13;;;;;;;0.60;0.60;;;;;;;-5.96;100.00;99629.47;5110955;28;20905;-59
2024/01/13 06:01:40;;;;;;;0.13;0.13;;;;;;;-5.99;100.00;99630.31;5110911;28;20454;-59
2024/01/13 06:04:07;;;;;;;0.90;0.47;;;;;;;-5.95;100.00;99641.09;5110753;28;20773;-59
2024/01/13 06:06:35;;;;;;;2.23;1.50;;;;;;;-5.96;100.00;99645.25;5110924;28;20451;-59
2024/01/13 06:09:02;;;;;;;0.87;0.87;;;;;;;-5.95;100.00;99641.09;5110709;28;20458;-59
2024/01/13 06:11:29;;;;;;;1.53;1.30;;;;;;;-5.98;100.00;99636.94;5110353;28;20840;-59
2024/01/13 06:13:56;;;;;;;4.43;1.73;;;;;;;-5.88;100.00;99652.69;5110651;28;20466;-59
2024/01/13 06:16:23;;;;;;;0.33;0.33;;;;;;;-5.82;100.00;99642.75;5109590;28;20439;-59
2024/01/13 06:18:49;;;;;;;0.30;0.30;;;;;;;-5.81;100.00;99651.06;5110511;28;20451;-59
2024/01/13 06:21:16;;;;;;;1.60;1.50;;;;;;;-5.88;100.00;99650.19;5110332;28;20443;-59
2024/01/13 06:23:45;;;;;;;1.67;0.83;;;;;;;-5.81;100.00;99644.44;5110000;28;20454;-59
2024/01/13 06:26:12;;;;;;;0.87;0.87;;;;;;;-5.81;100.00;99649.41;5110201;28;20443;-59
2024/01/13 06:28:39;;;;;;;1.40;1.07;;;;;;;-5.76;100.00;99651.91;5110146;28;20623;-59
2024/01/13 06:31:06;;;;;;;0.20;0.20;;;;;;;-5.76;100.00;99657.72;5110137;28;20450;-59
2024/01/13 06:33:33;;;;;;;1.07;0.97;;;;;;;-5.77;100.00;99661.03;5110156;28;20443;-59
2024/01/13 06:35:59;;;;;;;0.53;0.53;;;;;;;-5.71;100.00;99663.53;5110210;28;20453;-60
2024/01/13 06:38:26;;;;;;;1.13;0.83;;;;;;;-5.64;100.00;99671.03;5109892;28;20459;-59
2024/01/13 06:40:54;;;;;;;0.73;0.73;;;;;;;-5.58;100.00;99681.03;5109776;28;20952;-59
2024/01/13 06:43:21;;;;;;;1.20;1.13;;;;;;;-5.53;100.00;99680.19;5110005;28;20447;-59
2024/01/13 06:45:48;;;;;;;0.60;0.60;;;;;;;-5.48;100.00;99677.72;5109651;28;21033;-59
2024/01/13 06:48:15;;;;;;;0.57;0.57;;;;;;;-5.43;100.00;99683.53;5109828;28;20455;-59
2024/01/13 06:50:41;;;;;;;2.77;1.53;;;;;;;-5.40;100.00;99693.50;5109804;28;20451;-59
2024/01/13 06:53:08;;;;;;;3.10;1.57;;;;;;;-5.29;100.00;99684.41;5109960;28;20821;-59
2024/01/13 06:55:35;;;;;;;1.37;1.27;;;;;;;-5.23;100.00;99691.06;5109993;28;20466;-59
2024/01/13 06:58:03;;;;;;;0.57;0.57;;;;;;;-5.13;100.00;99684.41;5109535;28;20454;-59
2024/01/13 07:00:30;;;;;;;1.73;1.60;;;;;;;-4.99;100.00;99684.44;5109406;28;20451;-59
2024/01/13 07:02:57;;;;;;;0.53;0.53;;;;;;;-4.97;100.00;99682.75;5109385;28;20974;-60
2024/01/13 07:05:24;;;;;;;1.87;1.17;;;;;;;-4.82;100.00;99680.28;5109627;28;20498;-59
2024/01/13 07:07:50;;;;;;;0.83;0.83;;;;;;;-4.73;100.00;99676.94;5109697;28;20454;-59
2024/01/13 07:10:17;;;;;;;1.23;0.70;;;;;;;-4.47;100.00;99680.22;5109246;28;20454;-59
2024/01/13 07:12:47;;;;;;;2.33;1.87;;;;;;;-4.24;100.00;99674.38;5109629;28;20775;-59
2024/01/13 07:15:15;;;;;;;1.27;1.17;;;;;;;-4.11;100.00;99671.78;5109495;28;20481;-59
2024/01/13 07:17:42;;;;;;;4.70;1.30;;;;;;;-3.82;100.00;99673.34;5109157;28;20486;-59
2024/01/13 07:20:09;;;;;;;3.03;1.83;;;;;;;-3.59;100.00;99678.25;5109356;28;20462;-59
2024/01/13 07:22:36;;;;;;;4.90;2.40;;;;;;;-3.38;100.00;99667.28;5109414;28;20443;-59
2024/01/13 07:25:03;;;;;;;3.47;1.83;;;;;;;-3.36;100.00;99677.28;5109352;28;20941;-59
2024/01/13 07:27:30;;;;;;;1.47;1.37;;;;;;;-3.24;100.00;99677.19;5108778;28;20759;-59
2024/01/13 07:29:57;;;;;;;1.57;1.40;;;;;;;-3.01;100.00;99677.88;5109073;28;20459;-59
2024/01/13 07:32:25;;;;;;;3.97;1.73;;;;;;;-2.89;100.00;99673.59;5109233;28;20447;-59
2024/01/13 07:34:52;;;;;;;1.43;1.33;;;;;;;-2.87;100.00;99661.94;5108901;28;20861;-60
2024/01/13 07:37:18;;;;;;;1.37;1.23;;;;;;;-2.86;100.00;99668.56;5109438;28;20439;-59
2024/01/13 07:39:45;;;;;;;2.70;2.03;;;;;;;-2.77;100.00;99663.50;5109247;28;20454;-59
2024/01/13 07:42:12;;;;;;;5.30;1.50;;;;;;;-2.62;100.00;99662.53;5108838;28;20466;-59
2024/01/13 07:44:42;;;;;;;3.20;1.87;;;;;;;-2.75;100.00;99654.31;5108832;28;20483;-59
2024/01/13 07:47:08;;;;;;;1.77;1.43;;;;;;;-2.59;100.00;99655.84;5109161;28;20442;-60
2024/01/13 07:49:37;;;;;;;1.03;0.97;;;;;;;-2.43;100.00;99658.19;5109265;28;20451;-59
2024/01/13 07:52:04;;;;;;;3.97;2.10;;;;;;;-2.42;100.00;99654.81;5109061;28;20465;-59
2024/01/13 07:54:33;;;;;;;3.73;2.17;;;;;;;-2.26;100.00;99651.31;5108764;28;20463;-59
2024/01/13 07:57:00;;;;;;;2.53;2.20;;;;;;;-2.16;100.00;99657.84;5108897;28;20443;-59
2024/01/13 07:59:26;;;;;;;8.90;2.33;;;;;;;-2.02;100.00;99651.88;5108851;28;20446;-59
2024/01/13 08:01:53;;;;;;;3.80;2.20;;;;;;;-2.10;100.00;99652.78;5108829;28;20463;-59
2024/01/13 08:04:20;;;;;;;6.17;3.23;;;;;;;-1.96;100.00;99649.28;5108645;28;20446;-59
2024/01/13 08:06:48;;;;;;;2.87;1.80;;;;;;;-1.97;100.00;99657.66;5108969;28;20439;-59
2024/01/13 08:09:15;;;;;;;6.53;2.13;;;;;;;-1.73;100.00;99666.56;5108759;28;20439;-59
2024/01/13 08:11:44;;;;;;;4.47;2.37;;;;;;;-1.90;100.00;99664.25;5108562;28;20437;-58
2024/01/13 08:14:11;;;;;;;2.53;1.77;;;;;;;-1.64;100.00;99677.28;5108607;28;20458;-59
2024/01/13 08:16:38;;;;;;;6.50;3.60;;;;;;;-1.85;100.00;99667.53;5108607;28;20515;-57
2024/01/13 08:19:05;;;;;;;5.07;2.03;;;;;;;-1.39;100.00;99666.94;5108955;28;20454;-59
2024/01/13 08:21:31;;;;;;;4.00;2.53;;;;;;;-0.87;100.00;99671.16;5108435;28;20451;-59
2024/01/13 08:23:59;;;;;;;1.83;1.53;;;;;;;-0.35;100.00;99675.28;5108550;28;20450;-59
2024/01/13 08:26:30;;;;;;;4.03;1.57;;;;;;;-0.14;97.40;99673.22;5108440;28;20498;-59
2024/01/13 08:28:57;;;;;;;4.17;3.30;;;;;;;-0.52;98.31;99677.25;5108461;28;20689;-59
2024/01/13 08:31:23;;;;;;;3.80;2.80;;;;;;;-0.11;98.61;99685.72;5108492;28;20450;-59
2024/01/13 08:33:50;;;;;;;6.07;3.50;;;;;;;-0.18;97.19;99679.13;5108484;28;20201;-59
2024/01/13 08:36:17;;;;;;;6.47;2.40;;;;;;;-0.70;99.57;99674.22;5108449;28;20627;-59
2024/01/13 08:38:44;;;;;;;4.27;2.47;;;;;;;-1.15;100.00;99678.28;5109368;28;20250;-59
2024/01/13 08:41:13;;;;;;;4.70;3.23;;;;;;;-1.09;100.00;99678.19;5112233;27;20530;-59
2024/01/13 08:43:40;;;;;;;4.83;2.40;;;;;;;-1.24;100.00;99671.72;5112107;28;20828;-59
2024/01/13 08:46:07;;;;;;;7.27;3.00;;;;;;;-1.30;100.00;99666.78;5112107;28;20570;-59
2024/01/13 08:48:34;;;;;;;5.70;2.80;;;;;;;-1.37;100.00;99675.25;5112138;28;20454;-59
2024/01/13 08:51:01;;;;;;;6.00;2.70;;;;;;;-1.18;100.00;99666.59;5112439;28;20290;-60
2024/01/13 08:53:28;;;;;;;3.03;2.43;;;;;;;-0.91;100.00;99679.56;5112335;28;20442;-59
2024/01/13 08:55:55;;;;;;;5.17;3.93;;;;;;;-0.82;100.00;99664.34;5111849;28;20481;-59
2024/01/13 08:58:23;;;;;;;5.77;3.17;;;;;;;-0.77;100.00;99657.56;5112171;28;20454;-59
2024/01/13 09:00:54;;;;;;;7.47;3.20;;;;;;;-0.59;100.00;99655.59;5112077;28;20201;-59
2024/01/13 09:03:21;;;;;;;14.37;2.63;;;;;;;-0.49;100.00;99654.59;5112117;28;20190;-59
2024/01/13 09:05:48;;;;;;;2.33;2.13;;;;;;;-0.30;100.00;99658.41;5111895;28;20486;-59
2024/01/13 09:08:15;;;;;;;6.73;3.00;;;;;;;-0.35;100.00;99659.34;5112041;28;20498;-59
2024/01/13 09:10:41;;;;;;;3.10;2.60;;;;;;;-0.33;100.00;99653.44;5111787;28;20608;-60
2024/01/13 09:13:08;;;;;;;6.87;3.73;;;;;;;-0.16;100.00;99650.63;5112091;28;20224;-60
2024/01/13 09:15:36;;;;;;;5.93;2.97;;;;;;;0.03;99.65;99662.81;5111862;28;20201;-59
2024/01/13 09:18:04;;;;;;;6.27;3.57;;;;;;;0.19;97.59;99659.13;5111707;28;20225;-59
2024/01/13 09:20:31;;;;;;;5.93;3.10;;;;;;;0.16;97.36;99655.00;5111313;28;20585;-60
2024/01/13 09:22:59;;;;;;;7.87;3.10;;;;;;;0.46;95.69;99655.19;5111523;28;20201;-60
2024/01/13 09:25:25;;;;;;;3.10;2.43;;;;;;;0.84;94.26;99651.84;5111156;28;20229;-60
2024/01/13 09:27:53;;;;;;;12.03;3.97;;;;;;;1.47;91.21;99641.88;5111384;28;20209;-60
2024/01/13 09:30:19;;;;;;;2.27;1.77;;;;;;;1.75;88.35;99637.78;5111383;28;20197;-60
2024/01/13 09:32:48;;;;;;;7.50;3.70;;;;;;;2.44;85.69;99645.03;5111381;28;20201;-60
2024/01/13 09:35:14;;;;;;;6.30;4.23;;;;;;;2.25;80.92;99642.25;5111187;28;20202;-60
2024/01/13 09:37:41;;;;;;;7.40;3.23;;;;;;;1.78;80.71;99636.84;5111015;28;20194;-60
2024/01/13 09:40:10;;;;;;;5.07;2.90;;;;;;;1.70;83.03;99638.75;5111417;28;20201;-60
2024/01/13 09:42:44;;;;;;;7.53;4.33;;;;;;;1.98;82.11;99643.88;5111147;28;20675;-60
2024/01/13 09:45:11;;;;;;;6.53;3.70;;;;;;;1.77;82.98;99636.00;5110956;28;20760;-60
2024/01/13 09:47:38;;;;;;;5.33;2.33;;;;;;;2.64;80.82;99639.38;5111048;28;20205;-60
2024/01/13 09:50:08;;;;;;;6.83;3.27;;;;;;;3.12;77.82;99631.97;5111179;28;20197;-60
2024/01/13 09:52:35;;;;;;;10.80;3.13;;;;;;;3.93;72.68;99640.97;5111117;27;20193;-60
2024/01/13 09:55:05;;;;;;;7.07;4.37;;;;;;;3.65;69.10;99631.00;5110663;28;20213;-60
2024/01/13 09:57:32;;;;;;;6.30;4.17;;;;;;;3.68;69.67;99623.31;5110735;28;20212;-60
2024/01/13 09:59:59;;;;;;;5.07;3.63;;;;;;;3.80;70.91;99625.41;5110820;28;20679;-60
2024/01/13 10:02:26;;;;;;;10.83;4.33;;;;;;;4.12;67.79;99631.00;5110769;28;20768;-60
2024/01/13 10:04:52;;;;;;;7.70;3.97;;;;;;;4.78;65.84;99630.19;5110417;28;20197;-60
2024/01/13 10:07:21;;;;;;;9.37;5.03;;;;;;;5.11;62.89;99623.75;5110954;28;20599;-60
2024/01/13 10:09:48;;;;;;;8.83;4.30;;;;;;;5.26;61.17;99621.47;5110414;28;20302;-60
2024/01/13 10:12:15;;;;;;;8.70;4.10;;;;;;;5.27;61.04;99618.88;5110447;28;20198;-60
2024/01/13 10:14:43;;;;;;;8.73;3.93;;;;;;;5.07;61.46;99612.09;5110309;28;20201;-60
2024/01/13 10:17:11;;;;;;;9.80;5.27;;;;;;;4.81;61.12;99625.00;5110461;28;20197;-60
2024/01/13 10:19:38;;;;;;;10.90;4.33;;;;;;;4.70;64.27;99612.75;5110250;28;20690;-60
2024/01/13 10:22:05;;;;;;;6.83;3.73;;;;;;;4.67;63.59;99618.75;5110958;28;20735;-61
2024/01/13 10:24:35;;;;;;;13.73;5.27;;;;;;;5.49;62.67;99613.69;5110218;28;20294;-60
2024/01/13 10:27:02;;;;;;;6.13;4.30;;;;;;;5.18;60.93;99617.53;5110194;28;20233;-60
2024/01/13 10:29:30;;;;;;;6.93;3.53;;;;;;;5.06;61.53;99610.47;5110205;28;20689;-60
2024/01/13 10:31:57;;;;;;;8.57;4.33;;;;;;;4.43;63.80;99602.00;5110285;28;20208;-61
2024/01/13 10:34:24;;;;;;;8.23;4.77;;;;;;;4.00;66.31;99606.16;5109950;28;20201;-60
2024/01/13 10:36:50;;;;;;;7.30;4.23;;;;;;;4.23;67.14;99598.53;5109855;28;20201;-60
2024/01/13 10:39:18;;;;;;;8.37;4.67;;;;;;;4.45;66.19;99597.69;5110131;28;20201;-60
2024/01/13 10:41:52;;;;;;;9.40;4.17;;;;;;;4.47;65.95;99601.81;5109996;28;20221;-60
2024/01/13 10:44:22;;;;;;;11.87;4.27;;;;;;;4.13;66.69;99594.69;5109842;28;20208;-60
2024/01/13 10:46:50;;;;;;;9.63;4.27;;;;;;;4.35;68.58;99592.16;5109700;28;20236;-60
2024/01/13 10:49:27;;;;;;;9.27;3.87;;;;;;;4.35;67.93;99582.03;5109673;28;20251;-60
2024/01/13 10:51:58;;;;;;;5.97;3.93;;;;;;;4.65;65.31;99577.47;5109570;28;20594;-60
2024/01/13 10:54:26;;;;;;;7.20;4.40;;;;;;;4.53;65.97;99565.28;5109592;28;20455;-60
2024/01/13 10:56:54;;;;;;;7.60;4.43;;;;;;;4.90;64.50;99568.88;5110046;28;20225;-60
2024/01/13 10:59:23;;;;;;;7.37;3.23;;;;;;;5.21;63.48;99563.38;5109620;28;20678;-60
2024/01/13 11:01:53;;;;;;;7.13;3.80;;;;;;;4.74;63.18;99564.44;5109142;28;20193;-60
2024/01/13 11:04:22;;;;;;;6.47;4.17;;;;;;;4.04;64.68;99557.91;5109740;28;20254;-60
2024/01/13 11:06:49;;;;;;;6.50;2.90;;;;;;;4.24;66.23;99562.19;5109438;28;20240;-60
2024/01/13 11:09:18;;;;;;;11.67;3.43;;;;;;;4.00;63.73;99565.66;5109329;28;20222;-60
2024/01/13 11:11:52;;;;;;;6.40;3.17;;;;;;;3.55;70.31;99554.66;5109249;28;20585;-60
2024/01/13 11:14:26;;;;;;;5.00;3.37;;;;;;;3.71;68.05;99556.63;5109688;28;20201;-59
2024/01/13 11:16:55;;;;;;;5.53;3.07;;;;;;;3.42;70.34;99543.34;5109182;28;20224;-59
2024/01/13 11:19:22;;;;;;;7.33;3.30;;;;;;;3.84;70.03;99546.00;5109354;28;20208;-60
2024/01/13 11:21:49;;;;;;;9.77;3.87;;;;;;;3.49;70.19;99546.47;5109292;28;20201;-59
2024/01/13 11:24:17;;;;;;;3.87;2.83;;;;;;;3.32;71.11;99542.03;5109280;28;20220;-59
2024/01/13 11:26:45;;;;;;;5.87;2.97;;;;;;;2.95;71.81;99533.19;5108922;28;20770;-59
2024/01/13 11:29:19;;;;;;;3.70;2.63;;;;;;;2.94;73.80;99537.41;5108989;28;20289;-60